Aviation Digital Data Service (ADDS)

Output produced by TAFs form (1433 UTC 10 December 2016)
found at http://aviationweather.gov/adds/tafs/
 
KGUP 101129Z 1012/1112 VRB03KT P6SM FEW200 
     FM101700 24011KT P6SM SCT200 
     TEMPO 1020/1024 24012G22KT 
     FM110100 23009KT P6SM BKN150